Time;durP1;ratioP1;P1;durP2;ratioP2;P2;SDS_P1;SDS_P2;PMS_P1;PMS_P2;Temp;Humidity;BMP_temperature;BMP_pressure;BME280_temperature;BME280_humidity;BME280_pressure;Samples;Min_cycle;Max_cycle;Signal;HPM_P1;HPM_P2
2022/07/13 00:00:46;;;;;;;1.43;1.10;;;22.60;99.90;;;;;;5086746;28;20461;-83
2022/07/13 00:03:14;;;;;;;1.20;1.10;;;22.60;99.90;;;;;;5086950;28;20469;-83
2022/07/13 00:05:42;;;;;;;1.33;1.23;;;22.50;99.90;;;;;;5086919;28;20453;-84
2022/07/13 00:08:11;;;;;;;1.60;1.00;;;22.50;99.90;;;;;;5082180;28;20450;-83
2022/07/13 00:10:39;;;;;;;1.10;1.00;;;22.50;99.90;;;;;;5082363;28;20511;-82
2022/07/13 00:13:09;;;;;;;1.03;1.03;;;22.50;99.90;;;;;;5087758;28;20495;-84
2022/07/13 00:15:38;;;;;;;1.17;1.07;;;22.40;99.90;;;;;;5088709;28;20513;-84
2022/07/13 00:18:06;;;;;;;1.77;1.20;;;22.40;99.90;;;;;;5088502;28;20490;-85
2022/07/13 00:20:35;;;;;;;1.47;1.00;;;22.40;99.90;;;;;;5087597;28;20455;-84
2022/07/13 00:23:04;;;;;;;1.10;1.00;;;22.30;99.90;;;;;;5081660;28;20487;-84
2022/07/13 00:25:33;;;;;;;1.83;1.20;;;22.40;99.90;;;;;;5079577;28;20985;-84
2022/07/13 00:28:01;;;;;;;1.00;1.00;;;22.30;99.90;;;;;;5087903;28;20511;-83
2022/07/13 00:30:31;;;;;;;1.10;0.80;;;22.30;99.90;;;;;;5089460;28;20457;-84
2022/07/13 00:33:00;;;;;;;1.37;0.87;;;22.30;99.90;;;;;;5084809;28;20532;-83
2022/07/13 00:35:29;;;;;;;1.30;1.20;;;22.30;99.90;;;;;;5088341;28;20441;-84
2022/07/13 00:37:57;;;;;;;1.10;1.00;;;22.30;99.90;;;;;;5083830;28;20535;-83
2022/07/13 00:40:26;;;;;;;1.20;1.10;;;22.20;99.90;;;;;;5089351;28;20497;-84
2022/07/13 00:42:54;;;;;;;1.00;1.00;;;22.20;99.90;;;;;;5081734;28;20536;-85
2022/07/13 00:45:23;;;;;;;1.10;1.00;;;22.30;99.90;;;;;;5081730;28;20473;-84
2022/07/13 00:47:54;;;;;;;1.00;1.00;;;22.20;99.90;;;;;;5087169;28;20453;-83
2022/07/13 00:50:23;;;;;;;1.23;0.93;;;22.20;99.90;;;;;;5084454;28;20534;-83
2022/07/13 00:52:51;;;;;;;1.20;1.10;;;22.10;99.90;;;;;;5089317;28;21005;-83
2022/07/13 00:55:21;;;;;;;0.90;0.90;;;22.10;99.90;;;;;;5078332;28;20520;-82
2022/07/13 00:57:49;;;;;;;0.90;0.90;;;22.10;99.90;;;;;;5084640;28;20553;-83
2022/07/13 01:00:18;;;;;;;1.40;0.90;;;22.00;99.90;;;;;;5082760;28;20950;-83
2022/07/13 01:02:47;;;;;;;1.00;0.90;;;22.00;99.90;;;;;;5084422;28;20477;-84
2022/07/13 01:05:17;;;;;;;1.10;1.00;;;22.00;99.90;;;;;;5086205;28;20541;-83
2022/07/13 01:07:47;;;;;;;1.10;1.00;;;21.90;99.90;;;;;;5083418;28;20484;-84
2022/07/13 01:10:16;;;;;;;0.90;0.87;;;21.90;99.90;;;;;;5085504;28;20476;-83
2022/07/13 01:12:44;;;;;;;1.47;1.00;;;21.90;99.90;;;;;;5082263;28;20468;-84
2022/07/13 01:15:12;;;;;;;1.03;1.03;;;21.90;99.90;;;;;;5081896;28;20822;-83
2022/07/13 01:17:40;;;;;;;0.93;0.93;;;21.90;99.90;;;;;;5083799;28;20481;-83
2022/07/13 01:20:10;;;;;;;2.40;1.10;;;21.90;99.90;;;;;;5084633;28;20446;-82
2022/07/13 01:22:43;;;;;;;0.97;0.97;;;21.80;99.90;;;;;;5085483;28;20477;-83
2022/07/13 01:25:14;;;;;;;1.73;1.00;;;21.80;99.90;;;;;;5084382;28;21048;-83
2022/07/13 01:27:44;;;;;;;1.20;1.10;;;21.70;99.90;;;;;;5085595;28;20477;-84
2022/07/13 01:30:13;;;;;;;2.00;1.00;;;21.80;99.90;;;;;;5085904;28;20488;-82
2022/07/13 01:32:46;;;;;;;1.10;1.00;;;21.80;99.90;;;;;;5084581;28;20489;-83
2022/07/13 01:35:15;;;;;;;1.23;1.10;;;21.70;99.90;;;;;;5085527;28;20543;-84
2022/07/13 01:37:44;;;;;;;1.47;1.20;;;21.70;99.90;;;;;;5087574;28;20577;-85
2022/07/13 01:40:15;;;;;;;1.10;1.10;;;21.70;99.90;;;;;;5081173;28;20449;-84
2022/07/13 01:42:45;;;;;;;1.10;1.00;;;21.70;99.90;;;;;;5085189;28;20466;-85
2022/07/13 01:45:14;;;;;;;1.00;0.90;;;21.70;99.90;;;;;;5087349;28;20449;-84
2022/07/13 01:47:44;;;;;;;1.30;1.00;;;21.70;99.90;;;;;;5080249;28;20496;-85
2022/07/13 01:50:13;;;;;;;1.00;0.90;;;21.60;99.90;;;;;;5086444;28;20446;-84
2022/07/13 01:52:42;;;;;;;1.47;0.90;;;21.60;99.90;;;;;;5086236;28;20506;-84
2022/07/13 01:55:12;;;;;;;1.80;1.00;;;21.60;99.90;;;;;;5074375;28;20868;-84
2022/07/13 01:57:42;;;;;;;1.57;1.03;;;21.60;99.90;;;;;;5084946;28;20454;-82
2022/07/13 02:00:14;;;;;;;0.80;0.80;;;21.60;99.90;;;;;;5084638;28;21044;-82
2022/07/13 02:02:43;;;;;;;1.40;0.80;;;21.60;99.90;;;;;;5079069;28;20473;-82
2022/07/13 02:05:12;;;;;;;1.53;1.00;;;21.60;99.90;;;;;;5076700;28;20445;-83
2022/07/13 02:07:41;;;;;;;1.47;1.00;;;21.60;99.90;;;;;;5083134;28;21278;-83
2022/07/13 02:10:11;;;;;;;1.57;0.90;;;21.60;99.90;;;;;;5085497;28;20546;-83
2022/07/13 02:12:39;;;;;;;1.07;0.97;;;21.60;99.90;;;;;;5083094;28;20477;-84
2022/07/13 02:15:11;;;;;;;1.33;1.10;;;21.60;99.90;;;;;;5086212;28;20463;-82
2022/07/13 02:17:40;;;;;;;1.60;1.20;;;21.60;99.90;;;;;;5082727;28;20490;-83
2022/07/13 02:20:09;;;;;;;1.20;1.00;;;21.60;99.90;;;;;;5081985;28;20477;-83
2022/07/13 02:22:45;;;;;;;1.87;1.37;;;21.50;99.90;;;;;;5088275;28;20456;-83
2022/07/13 02:25:14;;;;;;;1.87;1.00;;;21.50;99.90;;;;;;5083195;28;20442;-84
2022/07/13 02:27:43;;;;;;;1.53;1.00;;;21.50;99.90;;;;;;5085023;28;20457;-82
2022/07/13 02:30:15;;;;;;;0.90;0.90;;;21.50;99.90;;;;;;5090113;28;20456;-84
2022/07/13 02:32:45;;;;;;;0.93;0.93;;;21.50;99.90;;;;;;5090248;28;20477;-82
2022/07/13 02:35:14;;;;;;;1.10;1.00;;;21.40;99.90;;;;;;5085192;28;20457;-82
2022/07/13 02:37:42;;;;;;;0.90;0.90;;;21.40;99.90;;;;;;5085778;28;20481;-83
2022/07/13 02:40:12;;;;;;;3.13;1.20;;;21.40;99.90;;;;;;5084382;28;20438;-84
2022/07/13 02:42:46;;;;;;;1.10;0.97;;;21.40;99.90;;;;;;5083868;28;20526;-83
2022/07/13 02:45:16;;;;;;;1.30;1.20;;;21.40;99.90;;;;;;5076039;28;20441;-83
2022/07/13 02:47:44;;;;;;;1.50;1.40;;;21.40;99.90;;;;;;5085308;28;20453;-84
2022/07/13 02:50:13;;;;;;;1.63;0.90;;;21.40;99.90;;;;;;5077121;28;20451;-85
2022/07/13 02:52:41;;;;;;;1.53;1.10;;;21.40;99.90;;;;;;5084473;28;20470;-84
2022/07/13 02:55:10;;;;;;;1.20;1.10;;;21.40;99.90;;;;;;5083525;28;20903;-82
2022/07/13 02:57:39;;;;;;;1.30;1.20;;;21.40;99.90;;;;;;5084742;28;20477;-83
2022/07/13 03:00:09;;;;;;;1.07;1.00;;;21.40;99.90;;;;;;5081357;28;20872;-83
2022/07/13 03:02:39;;;;;;;1.27;1.17;;;21.40;99.90;;;;;;5080537;28;20450;-84
2022/07/13 03:05:08;;;;;;;1.10;1.00;;;21.40;99.90;;;;;;5087178;28;20450;-82
2022/07/13 03:07:36;;;;;;;1.00;0.97;;;21.30;99.90;;;;;;5083845;28;20459;-84
2022/07/13 03:10:05;;;;;;;0.80;0.80;;;21.20;99.90;;;;;;5080813;28;20964;-82
2022/07/13 03:12:34;;;;;;;1.37;1.27;;;21.20;99.90;;;;;;5085423;28;20450;-82
2022/07/13 03:15:02;;;;;;;0.93;0.90;;;21.20;99.90;;;;;;5082924;28;20447;-84
2022/07/13 03:17:30;;;;;;;1.30;0.83;;;21.10;99.90;;;;;;5090077;28;20458;-84
2022/07/13 03:20:00;;;;;;;1.10;1.00;;;21.10;99.90;;;;;;5086955;28;20465;-84
2022/07/13 03:22:29;;;;;;;1.20;1.10;;;21.10;99.90;;;;;;5085532;28;20868;-83
2022/07/13 03:24:57;;;;;;;0.83;0.70;;;21.10;99.90;;;;;;5085285;28;20450;-82
2022/07/13 03:27:25;;;;;;;1.50;1.30;;;20.90;99.90;;;;;;5082320;28;20454;-84
2022/07/13 03:29:53;;;;;;;1.03;1.00;;;20.90;99.90;;;;;;5078618;28;20455;-84
2022/07/13 03:32:22;;;;;;;1.00;0.83;;;20.90;99.90;;;;;;5082616;28;20442;-86
2022/07/13 03:34:50;;;;;;;1.43;1.07;;;20.90;99.90;;;;;;5087357;28;20455;-84
2022/07/13 03:37:20;;;;;;;1.33;1.20;;;20.90;99.90;;;;;;5084167;28;20975;-83
2022/07/13 03:39:49;;;;;;;1.17;1.00;;;20.90;99.90;;;;;;5088978;28;20614;-83
2022/07/13 03:42:17;;;;;;;1.20;1.10;;;20.80;99.90;;;;;;5089879;28;20457;-84
2022/07/13 03:44:45;;;;;;;1.13;1.03;;;20.90;99.90;;;;;;5088102;28;20462;-85
2022/07/13 03:47:14;;;;;;;2.03;1.00;;;20.90;99.90;;;;;;5089190;28;20450;-85
2022/07/13 03:49:43;;;;;;;1.30;1.07;;;20.90;99.90;;;;;;5082608;28;20448;-83
2022/07/13 03:52:12;;;;;;;1.20;1.10;;;20.90;99.90;;;;;;5080922;28;20454;-84
2022/07/13 03:54:43;;;;;;;1.00;0.90;;;20.80;99.90;;;;;;5088115;28;20501;-84
2022/07/13 03:57:11;;;;;;;1.30;1.07;;;20.80;99.90;;;;;;5086288;28;20510;-84
2022/07/13 03:59:39;;;;;;;2.07;1.00;;;20.70;99.90;;;;;;5081385;28;20478;-83
2022/07/13 04:02:15;;;;;;;2.00;1.10;;;20.70;99.90;;;;;;5084813;28;20453;-84
2022/07/13 04:04:43;;;;;;;1.37;1.00;;;20.60;99.90;;;;;;5083782;28;20473;-83
2022/07/13 04:07:11;;;;;;;1.37;1.00;;;20.60;99.90;;;;;;5089081;28;20454;-83
2022/07/13 04:09:40;;;;;;;1.30;1.20;;;20.70;99.90;;;;;;5088198;28;20474;-83
2022/07/13 04:12:09;;;;;;;0.80;0.80;;;20.70;99.90;;;;;;5085251;28;20457;-83
2022/07/13 04:14:38;;;;;;;0.90;0.80;;;20.70;99.90;;;;;;5086492;28;20469;-83
2022/07/13 04:17:06;;;;;;;1.53;1.20;;;20.70;99.90;;;;;;5086410;28;20458;-85
2022/07/13 04:19:34;;;;;;;1.03;0.90;;;20.70;99.90;;;;;;5087525;28;20482;-84
2022/07/13 04:22:02;;;;;;;1.70;1.00;;;20.70;99.90;;;;;;5088972;28;20442;-83
2022/07/13 04:24:31;;;;;;;1.07;1.03;;;20.70;99.90;;;;;;5104784;28;21052;-85
2022/07/13 04:26:59;;;;;;;1.70;1.30;;;20.60;99.90;;;;;;5086989;28;20461;-85
2022/07/13 04:29:29;;;;;;;1.10;1.00;;;20.60;99.90;;;;;;5090368;28;20477;-84
2022/07/13 04:31:57;;;;;;;2.90;1.70;;;20.60;99.90;;;;;;5087346;28;20442;-82
2022/07/13 04:34:25;;;;;;;1.63;1.10;;;20.70;99.90;;;;;;5089059;28;20477;-82
2022/07/13 04:36:55;;;;;;;1.40;1.30;;;20.70;99.90;;;;;;5085288;28;20533;-80
2022/07/13 04:39:23;;;;;;;1.30;1.20;;;20.70;99.90;;;;;;5083775;28;21061;-81
2022/07/13 04:41:51;;;;;;;1.40;1.00;;;20.60;99.90;;;;;;5086291;28;20454;-79
2022/07/13 04:44:20;;;;;;;1.30;1.20;;;20.60;99.90;;;;;;5082837;28;20481;-79
2022/07/13 04:46:50;;;;;;;1.37;1.27;;;20.60;99.90;;;;;;5082628;28;20477;-81
2022/07/13 04:49:19;;;;;;;1.43;1.30;;;20.60;99.90;;;;;;5082752;28;20469;-81
2022/07/13 04:51:48;;;;;;;1.53;1.13;;;20.60;99.90;;;;;;5081896;28;20528;-81
2022/07/13 04:54:16;;;;;;;1.20;1.00;;;20.60;99.90;;;;;;5083924;28;20473;-82
2022/07/13 04:56:45;;;;;;;1.37;1.27;;;20.60;99.90;;;;;;5082847;28;20460;-81
2022/07/13 04:59:13;;;;;;;1.67;1.57;;;20.60;99.90;;;;;;5084145;28;20980;-83
2022/07/13 05:01:42;;;;;;;1.80;1.57;;;20.60;99.90;;;;;;5082061;28;20461;-83
2022/07/13 05:04:11;;;;;;;1.63;1.30;;;20.70;99.90;;;;;;5080082;28;20479;-82
2022/07/13 05:06:40;;;;;;;1.63;1.53;;;20.80;99.90;;;;;;5089123;28;20446;-82
2022/07/13 05:09:08;;;;;;;2.00;1.47;;;20.80;99.90;;;;;;5081035;28;20959;-84
2022/07/13 05:11:36;;;;;;;2.00;1.30;;;20.80;99.90;;;;;;5085009;28;20457;-83
2022/07/13 05:14:05;;;;;;;2.07;1.40;;;20.80;99.90;;;;;;5088134;28;20609;-83
2022/07/13 05:16:33;;;;;;;1.67;1.30;;;20.80;99.90;;;;;;5085620;28;20967;-82
2022/07/13 05:19:01;;;;;;;1.17;1.07;;;20.90;99.90;;;;;;5082191;28;22233;-82
2022/07/13 05:21:31;;;;;;;1.87;1.00;;;20.90;99.90;;;;;;5084304;28;20557;-82
2022/07/13 05:23:59;;;;;;;1.83;1.70;;;21.00;99.90;;;;;;5083046;28;20465;-81
2022/07/13 05:26:27;;;;;;;1.27;1.17;;;21.10;99.90;;;;;;5085541;28;20450;-82
2022/07/13 05:28:56;;;;;;;1.27;1.17;;;21.10;99.90;;;;;;5081456;28;20461;-83
2022/07/13 05:31:24;;;;;;;1.63;1.13;;;21.10;99.90;;;;;;5084928;28;20464;-82
2022/07/13 05:33:53;;;;;;;1.33;1.17;;;21.10;99.90;;;;;;5085059;28;21035;-82
2022/07/13 05:36:22;;;;;;;1.27;1.17;;;21.20;99.90;;;;;;5085238;28;20445;-82
2022/07/13 05:38:52;;;;;;;1.30;1.20;;;21.30;99.90;;;;;;5085705;28;20446;-80
2022/07/13 05:41:21;;;;;;;1.40;1.23;;;21.30;99.90;;;;;;5087156;28;20531;-82
2022/07/13 05:43:50;;;;;;;1.20;1.10;;;21.40;99.90;;;;;;5082832;28;20476;-82
2022/07/13 05:46:19;;;;;;;1.43;1.20;;;21.50;99.90;;;;;;5079355;28;20522;-81
2022/07/13 05:48:47;;;;;;;1.43;0.97;;;21.40;99.90;;;;;;5086613;28;20461;-82
2022/07/13 05:51:16;;;;;;;1.70;1.60;;;21.40;99.90;;;;;;5087532;28;20453;-82
2022/07/13 05:54:03;;;;;;;1.10;1.00;;;21.30;99.90;;;;;;5080705;28;20517;-82
2022/07/13 05:56:52;;;;;;;1.43;0.90;;;21.40;99.90;;;;;;5085891;28;20458;-81
2022/07/13 05:59:21;;;;;;;1.53;1.43;;;21.50;99.90;;;;;;5085695;28;20470;-82
2022/07/13 06:01:50;;;;;;;1.13;0.90;;;21.60;99.90;;;;;;5083587;28;20450;-83
2022/07/13 06:04:18;;;;;;;1.63;1.23;;;21.70;99.90;;;;;;5082941;28;20523;-83
2022/07/13 06:06:47;;;;;;;1.20;1.10;;;21.70;99.90;;;;;;5082048;28;20507;-82
2022/07/13 06:09:17;;;;;;;1.20;1.00;;;21.80;99.90;;;;;;5086333;28;20869;-82
2022/07/13 06:11:47;;;;;;;1.57;1.07;;;21.90;99.90;;;;;;5084595;28;20449;-82
2022/07/13 06:14:15;;;;;;;2.03;1.07;;;21.90;99.90;;;;;;5085671;28;20531;-82
2022/07/13 06:16:43;;;;;;;1.20;1.10;;;22.00;99.90;;;;;;5082450;28;20456;-82
2022/07/13 06:19:12;;;;;;;2.40;1.20;;;22.00;99.90;;;;;;5083659;28;20454;-83
2022/07/13 06:21:40;;;;;;;1.63;1.40;;;22.10;99.90;;;;;;5082973;28;21023;-81
2022/07/13 06:24:09;;;;;;;1.63;1.50;;;22.10;99.90;;;;;;5080070;28;20481;-82
2022/07/13 06:26:39;;;;;;;4.23;1.37;;;22.10;99.90;;;;;;5084794;28;20440;-82
2022/07/13 06:29:08;;;;;;;1.90;1.43;;;22.20;99.90;;;;;;5085700;28;20471;-83
2022/07/13 06:31:36;;;;;;;5.10;1.40;;;22.20;99.90;;;;;;5089870;28;20446;-82
2022/07/13 06:34:05;;;;;;;1.73;1.30;;;22.20;99.90;;;;;;5086968;28;20498;-82
2022/07/13 06:36:34;;;;;;;1.30;1.20;;;22.30;99.90;;;;;;5079531;28;20465;-82
2022/07/13 06:39:03;;;;;;;2.53;1.20;;;22.30;99.90;;;;;;5086231;28;20463;-81
2022/07/13 06:41:31;;;;;;;3.00;1.13;;;22.30;99.90;;;;;;5082798;28;20493;-82
2022/07/13 06:44:01;;;;;;;2.00;1.10;;;22.40;99.90;;;;;;5087758;28;20484;-82
2022/07/13 06:46:30;;;;;;;2.13;1.00;;;22.40;99.90;;;;;;5082499;28;20452;-81
2022/07/13 06:48:59;;;;;;;5.40;1.00;;;22.50;99.90;;;;;;5085255;28;20452;-81
2022/07/13 06:51:28;;;;;;;1.33;0.93;;;22.50;99.90;;;;;;5083614;28;20453;-80
2022/07/13 06:53:57;;;;;;;0.93;0.93;;;22.60;99.90;;;;;;5079210;28;20982;-82
2022/07/13 06:56:25;;;;;;;1.47;0.90;;;22.70;99.90;;;;;;5083282;28;20548;-82
2022/07/13 06:58:54;;;;;;;2.70;1.10;;;22.70;99.90;;;;;;5083590;28;20453;-81
2022/07/13 07:01:24;;;;;;;1.50;1.00;;;22.70;99.90;;;;;;5077885;28;20490;-82
2022/07/13 07:03:52;;;;;;;3.73;1.00;;;22.80;99.90;;;;;;5083029;28;20463;-82
2022/07/13 07:06:21;;;;;;;1.10;1.10;;;22.80;99.90;;;;;;5082316;28;20457;-82
2022/07/13 07:08:49;;;;;;;1.30;1.00;;;22.90;99.90;;;;;;5082581;28;20458;-82
2022/07/13 07:11:18;;;;;;;0.70;0.70;;;23.00;99.90;;;;;;5083486;28;20523;-82
2022/07/13 07:13:46;;;;;;;1.37;0.80;;;23.10;99.90;;;;;;5085896;28;20481;-82
2022/07/13 07:16:15;;;;;;;1.13;0.70;;;23.10;99.90;;;;;;5078486;28;20867;-82
2022/07/13 07:18:45;;;;;;;1.10;1.00;;;23.30;99.90;;;;;;5085127;28;20445;-83
2022/07/13 07:21:34;;;;;;;0.70;0.70;;;23.30;99.90;;;;;;5082757;28;20468;-81
2022/07/13 07:24:02;;;;;;;1.80;0.80;;;23.40;99.90;;;;;;5080936;28;20469;-81
2022/07/13 07:26:32;;;;;;;0.80;0.80;;;23.50;99.90;;;;;;5083159;28;20456;-81
2022/07/13 07:29:00;;;;;;;0.77;0.70;;;23.50;99.90;;;;;;5083217;28;21087;-82
2022/07/13 07:31:30;;;;;;;0.60;0.60;;;23.50;99.90;;;;;;5081204;28;20938;-82
2022/07/13 07:34:00;;;;;;;0.60;0.60;;;23.50;99.90;;;;;;5082350;28;20486;-82
2022/07/13 07:36:30;;;;;;;1.33;1.27;;;23.60;99.90;;;;;;5083879;28;20977;-82
2022/07/13 07:38:59;;;;;;;0.80;0.80;;;23.70;99.90;;;;;;5082288;28;20441;-82
2022/07/13 07:41:28;;;;;;;0.80;0.80;;;23.80;99.90;;;;;;5082795;28;20484;-82
2022/07/13 07:43:59;;;;;;;1.10;0.70;;;23.80;99.90;;;;;;5083138;28;21019;-82
2022/07/13 07:46:29;;;;;;;1.00;0.90;;;23.80;99.90;;;;;;5081809;28;20449;-81
2022/07/13 07:48:59;;;;;;;1.07;0.80;;;23.90;99.90;;;;;;5083346;28;20455;-81
2022/07/13 07:51:31;;;;;;;0.67;0.67;;;23.80;99.90;;;;;;5083340;28;20532;-82
2022/07/13 07:54:19;;;;;;;1.63;0.80;;;23.90;99.90;;;;;;5081065;28;20483;-81
2022/07/13 07:56:48;;;;;;;0.60;0.60;;;24.00;99.90;;;;;;5084691;28;20446;-81
2022/07/13 07:59:17;;;;;;;1.27;0.77;;;24.00;99.90;;;;;;5082389;28;20460;-82
2022/07/13 08:01:47;;;;;;;2.13;1.10;;;24.00;99.90;;;;;;5081290;28;20477;-82
2022/07/13 08:04:17;;;;;;;0.67;0.67;;;24.10;99.90;;;;;;5088594;28;20490;-82
2022/07/13 08:06:49;;;;;;;0.70;0.70;;;24.10;99.90;;;;;;5086351;28;20448;-82
2022/07/13 08:09:19;;;;;;;1.97;1.20;;;24.20;99.90;;;;;;5088396;28;20541;-81
2022/07/13 08:11:48;;;;;;;2.43;0.63;;;24.30;99.90;;;;;;5085500;28;20438;-81
2022/07/13 08:14:18;;;;;;;0.70;0.70;;;24.30;99.90;;;;;;5086924;28;21078;-82
2022/07/13 08:16:47;;;;;;;2.40;1.00;;;24.30;99.90;;;;;;5089246;28;21149;-82
2022/07/13 08:19:16;;;;;;;0.80;0.80;;;24.40;99.90;;;;;;5086248;28;20446;-81
2022/07/13 08:22:07;;;;;;;0.80;0.80;;;24.40;99.90;;;;;;5086113;28;20477;-82
2022/07/13 08:24:37;;;;;;;1.03;0.70;;;24.50;99.90;;;;;;5085340;28;20934;-82
2022/07/13 08:27:07;;;;;;;0.70;0.70;;;24.50;99.90;;;;;;5082073;28;20458;-82
2022/07/13 08:29:36;;;;;;;0.80;0.80;;;24.50;99.90;;;;;;5081323;28;21000;-82
2022/07/13 08:32:06;;;;;;;0.60;0.60;;;24.50;99.90;;;;;;5087702;28;20445;-82
2022/07/13 08:40:15;;;;;;;0.80;0.80;;;24.60;99.90;;;;;;5086326;28;20544;-81
2022/07/13 08:42:43;;;;;;;0.60;0.60;;;24.60;99.90;;;;;;5079387;28;23315;-82
2022/07/13 08:45:13;;;;;;;1.03;0.60;;;24.70;99.90;;;;;;5097644;28;20481;-82
2022/07/13 08:47:45;;;;;;;0.60;0.60;;;24.60;99.90;;;;;;5087110;28;20504;-82
2022/07/13 08:50:15;;;;;;;0.60;0.60;;;24.70;99.90;;;;;;5084519;28;20464;-82
2022/07/13 08:52:46;;;;;;;0.77;0.67;;;24.70;99.90;;;;;;5086136;28;20474;-82
2022/07/13 08:55:15;;;;;;;0.77;0.70;;;24.80;99.90;;;;;;5086259;28;20465;-82
2022/07/13 08:57:43;;;;;;;0.70;0.70;;;24.90;99.90;;;;;;5088791;28;20474;-82
2022/07/13 09:00:13;;;;;;;0.70;0.70;;;25.00;99.90;;;;;;5086779;28;20472;-81
2022/07/13 09:02:42;;;;;;;0.93;0.70;;;25.00;99.90;;;;;;5082085;28;20478;-81
2022/07/13 09:08:53;;;;;;;1.53;0.80;;;25.00;99.90;;;;;;5082159;28;20981;-83
2022/07/13 09:11:24;;;;;;;0.80;0.80;;;25.10;99.90;;;;;;5079453;28;20486;-83
2022/07/13 09:13:57;;;;;;;0.83;0.70;;;25.00;99.90;;;;;;5084183;28;20465;-83
2022/07/13 09:16:27;;;;;;;0.70;0.70;;;25.00;99.90;;;;;;5084720;28;20454;-83
2022/07/13 09:18:57;;;;;;;0.60;0.60;;;25.10;99.90;;;;;;5084234;28;20462;-83
2022/07/13 09:21:31;;;;;;;0.60;0.60;;;25.20;99.90;;;;;;5085906;28;20481;-84
2022/07/13 09:24:04;;;;;;;0.60;0.60;;;25.30;99.90;;;;;;5079726;28;20484;-84
2022/07/13 09:26:41;;;;;;;0.70;0.70;;;25.30;99.90;;;;;;5091386;28;20456;-84
2022/07/13 09:29:12;;;;;;;0.70;0.70;;;25.40;99.90;;;;;;5090866;28;20449;-84
2022/07/13 09:31:59;;;;;;;0.60;0.60;;;25.40;99.90;;;;;;5077850;28;20466;-83
2022/07/13 09:34:47;;;;;;;0.70;0.70;;;25.50;99.90;;;;;;5092756;28;20521;-84
2022/07/13 09:37:18;;;;;;;0.90;0.60;;;25.60;99.90;;;;;;5093713;28;20449;-84
2022/07/13 09:40:08;;;;;;;1.00;0.70;;;25.60;99.90;;;;;;5093947;28;20461;-85
2022/07/13 09:42:39;;;;;;;1.07;0.77;;;25.70;99.90;;;;;;5090484;28;20461;-85
2022/07/13 09:47:57;;;;;;;0.60;0.60;;;25.70;99.90;;;;;;5082446;28;20445;-83
2022/07/13 09:50:37;;;;;;;0.67;0.50;;;25.70;99.90;;;;;;5084431;28;20447;-84
2022/07/13 09:53:25;;;;;;;1.17;0.70;;;25.70;99.90;;;;;;5090948;28;20466;-84
2022/07/13 09:55:57;;;;;;;0.60;0.60;;;25.80;99.90;;;;;;5093834;28;20438;-84
2022/07/13 09:58:30;;;;;;;0.63;0.63;;;25.80;99.90;;;;;;5085420;28;20454;-83
2022/07/13 10:01:01;;;;;;;1.30;0.70;;;25.90;98.80;;;;;;5083409;28;21073;-84
2022/07/13 10:03:32;;;;;;;1.00;0.70;;;25.90;94.70;;;;;;5093057;28;20456;-84
2022/07/13 10:06:04;;;;;;;0.60;0.60;;;26.00;99.90;;;;;;5092383;28;20508;-84
2022/07/13 10:08:35;;;;;;;0.53;0.53;;;26.00;99.90;;;;;;5092995;28;20460;-84
2022/07/13 10:11:05;;;;;;;0.70;0.70;;;26.00;99.90;;;;;;5092983;28;21170;-84
2022/07/13 10:13:37;;;;;;;0.63;0.60;;;26.00;99.90;;;;;;5092702;28;20473;-82
2022/07/13 10:16:05;;;;;;;0.63;0.63;;;26.00;99.90;;;;;;5092870;28;20460;-84
2022/07/13 10:18:37;;;;;;;0.60;0.60;;;26.00;96.60;;;;;;5091300;28;20463;-84
2022/07/13 10:21:13;;;;;;;0.93;0.60;;;26.00;96.00;;;;;;5092520;28;20529;-84
2022/07/13 10:23:42;;;;;;;0.80;0.60;;;26.10;99.80;;;;;;5092161;28;20465;-84
2022/07/13 10:26:25;;;;;;;1.40;0.77;;;26.20;99.90;;;;;;5091793;28;20449;-84
2022/07/13 10:29:06;;;;;;;0.63;0.63;;;26.20;99.30;;;;;;5092269;28;20809;-84
2022/07/13 10:31:37;;;;;;;0.70;0.70;;;26.20;98.40;;;;;;5092230;28;20819;-84
2022/07/13 10:34:08;;;;;;;0.60;0.60;;;26.30;98.50;;;;;;5089427;28;20477;-84
2022/07/13 10:36:56;;;;;;;0.60;0.60;;;26.30;99.90;;;;;;5091030;28;20961;-84
2022/07/13 10:39:27;;;;;;;0.50;0.50;;;26.40;99.90;;;;;;5079832;28;20450;-84
2022/07/13 10:42:02;;;;;;;0.50;0.50;;;26.30;95.50;;;;;;5091772;28;20543;-85
2022/07/13 10:44:39;;;;;;;0.97;0.60;;;26.30;91.10;;;;;;5092273;28;20514;-84
2022/07/13 10:47:10;;;;;;;0.60;0.60;;;26.30;93.00;;;;;;5091642;28;20818;-85
2022/07/13 10:49:47;;;;;;;0.50;0.50;;;26.40;93.20;;;;;;5081211;28;20450;-84
2022/07/13 10:52:52;;;;;;;0.60;0.60;;;26.40;98.10;;;;;;5090140;28;20454;-84
2022/07/13 10:55:48;;;;;;;0.60;0.60;;;26.40;93.70;;;;;;5079731;28;20538;-85
2022/07/13 10:58:45;;;;;;;0.50;0.50;;;26.40;98.00;;;;;;5079800;28;20458;-86
2022/07/13 11:01:35;;;;;;;0.50;0.50;;;26.50;99.90;;;;;;5080222;28;20525;-84
2022/07/13 11:04:05;;;;;;;0.60;0.50;;;26.50;99.90;;;;;;5091736;28;20470;-83
2022/07/13 11:06:36;;;;;;;1.53;0.53;;;26.50;98.50;;;;;;5082294;28;20512;-84
2022/07/13 11:09:15;;;;;;;1.57;0.60;;;26.50;99.90;;;;;;5082730;28;20864;-84
2022/07/13 11:11:46;;;;;;;1.17;0.63;;;26.50;93.30;;;;;;5092119;28;20521;-84
2022/07/13 11:14:48;;;;;;;0.50;0.50;;;26.50;90.70;;;;;;5090988;28;20548;-83
2022/07/13 11:17:21;;;;;;;0.60;0.60;;;26.60;87.50;;;;;;5090480;28;20460;-82
2022/07/13 11:19:51;;;;;;;1.00;0.60;;;26.70;94.20;;;;;;5092495;28;20445;-83
2022/07/13 11:22:20;;;;;;;0.67;0.67;;;26.70;94.40;;;;;;5090051;28;20485;-82
2022/07/13 11:25:14;;;;;;;0.90;0.50;;;26.70;93.40;;;;;;5086394;28;20497;-83
2022/07/13 11:27:57;;;;;;;0.50;0.50;;;26.80;86.00;;;;;;5088366;28;20801;-84
2022/07/13 11:30:29;;;;;;;0.50;0.50;;;26.80;89.60;;;;;;5084460;28;20953;-83
2022/07/13 11:32:59;;;;;;;0.50;0.50;;;26.80;91.80;;;;;;5091252;28;20538;-83
2022/07/13 11:35:27;;;;;;;1.20;0.53;;;26.80;94.00;;;;;;5078193;28;20455;-83
2022/07/13 11:37:57;;;;;;;0.73;0.50;;;26.90;94.20;;;;;;5095244;28;20468;-83
2022/07/13 11:40:30;;;;;;;1.20;0.50;;;26.90;94.70;;;;;;5096303;28;20473;-84
2022/07/13 11:43:03;;;;;;;0.60;0.60;;;26.90;95.70;;;;;;5096222;28;20815;-82
2022/07/13 11:45:33;;;;;;;0.80;0.50;;;26.80;92.10;;;;;;5095656;28;20465;-83
2022/07/13 11:48:04;;;;;;;0.50;0.50;;;26.90;92.80;;;;;;5095670;28;20438;-84
2022/07/13 11:50:40;;;;;;;0.50;0.50;;;26.80;92.10;;;;;;5096168;28;21014;-83
2022/07/13 11:53:10;;;;;;;0.50;0.50;;;26.90;95.20;;;;;;5079725;28;20458;-83
2022/07/13 11:55:38;;;;;;;1.03;0.50;;;26.90;93.60;;;;;;5094149;28;20945;-84
2022/07/13 11:58:24;;;;;;;0.83;0.50;;;26.90;95.60;;;;;;5095592;28;20461;-83
2022/07/13 12:00:53;;;;;;;0.40;0.40;;;26.90;96.20;;;;;;5095675;28;20452;-83
2022/07/13 12:03:34;;;;;;;0.90;0.57;;;26.90;92.50;;;;;;5094279;28;20495;-83
2022/07/13 12:06:04;;;;;;;0.50;0.50;;;26.90;95.20;;;;;;5095657;28;20489;-84
2022/07/13 12:08:36;;;;;;;0.50;0.50;;;26.90;95.20;;;;;;5095708;28;20454;-84
2022/07/13 12:11:08;;;;;;;0.57;0.50;;;26.90;90.90;;;;;;5095300;28;20445;-83
2022/07/13 12:13:39;;;;;;;0.40;0.40;;;26.90;92.80;;;;;;5087756;28;20534;-83
2022/07/13 12:16:12;;;;;;;0.50;0.50;;;26.90;90.40;;;;;;5085386;28;20450;-84
2022/07/13 12:19:01;;;;;;;0.50;0.50;;;26.90;84.00;;;;;;5093637;28;20446;-83
2022/07/13 12:21:31;;;;;;;0.60;0.60;;;27.00;82.70;;;;;;5085803;28;20449;-84
2022/07/13 12:24:01;;;;;;;0.70;0.60;;;27.10;87.20;;;;;;5088262;28;21084;-84
2022/07/13 12:26:31;;;;;;;0.70;0.50;;;27.20;84.10;;;;;;5093425;28;20456;-83
2022/07/13 12:29:01;;;;;;;0.73;0.50;;;27.60;84.90;;;;;;5092124;28;20507;-84
2022/07/13 12:31:30;;;;;;;0.47;0.47;;;27.30;85.30;;;;;;5082901;28;20536;-85
2022/07/13 12:34:02;;;;;;;0.97;0.50;;;27.40;85.90;;;;;;5093388;28;20505;-85
2022/07/13 12:36:38;;;;;;;0.60;0.60;;;27.50;85.70;;;;;;5084629;28;20464;-84
2022/07/13 12:39:08;;;;;;;1.07;0.50;;;27.50;85.70;;;;;;5074965;28;20458;-82
2022/07/13 12:41:41;;;;;;;0.60;0.57;;;27.60;83.00;;;;;;5083846;28;20499;-85
2022/07/13 12:44:11;;;;;;;0.70;0.50;;;27.80;84.60;;;;;;5077642;28;20473;-84
2022/07/13 12:46:50;;;;;;;0.50;0.50;;;27.80;83.50;;;;;;5083411;28;20881;-85
2022/07/13 12:49:28;;;;;;;0.50;0.40;;;27.90;80.30;;;;;;5075035;28;20451;-85
2022/07/13 12:52:02;;;;;;;0.93;0.60;;;27.90;82.20;;;;;;5082129;28;20445;-86
2022/07/13 12:54:46;;;;;;;0.60;0.50;;;27.90;82.40;;;;;;5090210;28;21182;-85
2022/07/13 12:57:16;;;;;;;0.53;0.53;;;27.90;80.60;;;;;;5093092;28;20453;-84
2022/07/13 12:59:59;;;;;;;0.47;0.47;;;27.90;82.80;;;;;;5095056;28;20453;-83
2022/07/13 13:02:28;;;;;;;0.40;0.40;;;28.00;79.50;;;;;;5093495;28;20464;-87
2022/07/13 13:04:58;;;;;;;0.50;0.50;;;28.00;79.00;;;;;;5079241;28;20512;-87
2022/07/13 13:07:27;;;;;;;0.60;0.53;;;28.00;82.00;;;;;;5092950;28;20464;-86
2022/07/13 13:09:56;;;;;;;0.80;0.50;;;28.10;85.80;;;;;;5088565;28;21758;-87
2022/07/13 13:12:24;;;;;;;0.50;0.50;;;28.10;82.40;;;;;;5079423;28;20459;-86
2022/07/13 13:14:52;;;;;;;0.47;0.47;;;28.10;83.10;;;;;;5080495;28;20511;-86
2022/07/13 13:17:23;;;;;;;0.50;0.50;;;28.20;87.20;;;;;;5093893;28;20486;-87
2022/07/13 13:19:52;;;;;;;1.33;0.47;;;28.20;85.40;;;;;;5093201;28;20537;-86